Wednesday, April 25, 2018, 1:08 AM EDT
Back to Local

KJST, Johnstown-cambria Co Airport

Location: Johnstown, PA, United States Lat: 40.317
Local Time: 1:08 AM EDT ( 5:08 GMT) Lon: -78.833
Time Zone: US/Eastern Elev: 2283 ft

Show me the last for .
Show Coded

Time T Td Feel RH Dir Speed Gust Alt SLP Vis Weather Sky Remarks
2018-04-25 00:54 47 45 43 92 100° 8 - 29.93 29.96 6 BR OVC008 24-hr Min Temp (1am): 44.1°F
24-hr Max Temp (1am): 50.0°F
2018-04-24 23:54 48 45 42 89 110° 10 17 29.95 29.97 10 OVC009 1-hr Precip Total: Trace
2018-04-24 22:54 48 45 44 89 110° 9 - 29.98 30.00 10 -RA OVC009 1-hr Precip Total: 0.01"
6-hr Precip Total (11pm): 0.09"
2018-04-24 22:25 48 45 44 89 100° 9 - 29.99 - 10 -RA OVC009 1-hr Precip Total: Trace
2018-04-24 21:54 48 45 42 89 100° 8 17 30.01 30.03 10 -RA OVC011 1-hr Precip Total: 0.02"
2018-04-24 20:54 48 45 44 89 110° 8 - 30.02 30.04 8 -RA BKN009 OVC013 1-hr Precip Total: 0.06"
2018-04-24 20:24 48 45 44 89 120° 9 - 30.02 - 6 -RA BR BKN010 OVC017 1-hr Precip Total: 0.04"
2018-04-24 20:17 48 45 44 89 110° 8 - 30.03 - 6 -RA BR BKN008 BKN014 OVC019 1-hr Precip Total: 0.03"
2018-04-24 19:54 48 45 45 89 120° 6 - 30.03 30.05 4 -RA BR BKN012 OVC018 1-hr Precip Total: 0.05"
6-hr Precip Total (8pm): 0.19"
6-hr Min Temp (8pm): 46.9°F
6-hr Max Temp (8pm): 48.9°F
2018-04-24 19:37 48 46 44 92 120° 8 - 30.02 - 5 -RA BR BKN010 OVC017 1-hr Precip Total: 0.03"
2018-04-24 18:54 49 46 47 89 120° 6 - 30.03 30.06 6 -RA BR BKN009 OVC014 1-hr Precip Total: 0.02"
2018-04-24 17:54 49 46 45 89 110° 8 - 30.05 30.07 6 -RA BR BKN010 OVC017 1-hr Precip Total: 0.03"
2018-04-24 17:40 49 46 45 89 110° 9 - 30.05 - 6 -RA BR OVC011 1-hr Precip Total: 0.02"
2018-04-24 17:01 49 46 43 89 110° 8 17 30.05 - 5 -RA BR BKN009 OVC014 1-hr Precip Total: 0.01"
2018-04-24 16:54 48 46 45 92 100° 7 - 30.05 30.07 5 -RA BR OVC013 1-hr Precip Total: 0.03"
6-hr Precip Total (5pm): 0.09"
2018-04-24 15:54 48 45 43 89 120° 10 - 30.07 30.10 6 -RA BR OVC012 1-hr Precip Total: 0.03"
2018-04-24 14:54 47 44 40 89 110° 12 20 30.10 30.13 5 -RA BR BKN011 BKN017 OVC042 1-hr Precip Total: 0.03"
2018-04-24 14:18 47 44 39 89 120° 13 23 30.12 - 7 -RA FEW009 BKN013 OVC018 1-hr Precip Total: 0.01"
2018-04-24 14:08 47 44 39 89 120° 15 22 30.12 - 6 -RA BR SCT011 OVC016 1-hr Precip Total: Trace
2018-04-24 14:01 47 44 40 89 130° 10 17 30.12 - 7 -RA BKN009 OVC015 1-hr Precip Total: Trace
2018-04-24 13:54 47 44 42 89 120° 10 - 30.13 30.14 8 -RA OVC012 1-hr Precip Total: 0.03"
6-hr Precip Total (2pm): 0.26"
6-hr Min Temp (2pm): 44.1°F
6-hr Max Temp (2pm): 46.9°F
2018-04-24 13:28 47 44 39 89 130° 13 23 30.14 - 7 -RA BKN011 OVC014 1-hr Precip Total: 0.02"
2018-04-24 13:07 46 43 37 88 130° 14 28 30.14 - 5 -RA BR BKN009 OVC015 1-hr Precip Total: 0.01"
2018-04-24 12:54 46 43 38 88 140° 13 22 30.15 30.17 5 -RA BR OVC010 1-hr Precip Total: 0.05"
2018-04-24 12:29 46 43 39 88 140° 12 18 30.16 - 6 -RA BR BKN009 OVC060 1-hr Precip Total: 0.03"
2018-04-24 12:15 46 43 38 88 130° 14 23 30.16 - 6 -RA BR BKN010 OVC060 1-hr Precip Total: 0.02"
2018-04-24 12:04 46 43 38 88 130° 12 21 30.16 - 6 -RA BR BKN008 OVC060 1-hr Precip Total: 0.01"
2018-04-24 11:54 45 42 36 89 140° 16 23 30.17 30.18 6 -RA BR BKN010 OVC060 1-hr Precip Total: 0.09"
2018-04-24 11:07 45 42 37 89 130° 9 22 30.18 - 6 -RA BR BKN009 BKN050 OVC065 1-hr Precip Total: 0.02"
2018-04-24 10:54 45 42 39 89 130° 13 - 30.18 30.20 5 -RA BR BKN010 BKN050 OVC065 1-hr Precip Total: 0.05"
6-hr Precip Total (11am): 0.09"
2018-04-24 09:54 45 41 37 85 130° 10 20 30.19 30.20 8 -RA BKN013 BKN026 OVC065 1-hr Precip Total: 0.03"
2018-04-24 09:46 44 41 40 88 130° 7 - 30.19 - 7 -RA BKN013 BKN026 OVC065 1-hr Precip Total: 0.02"
2018-04-24 09:38 44 40 40 85 130° 8 - 30.19 - 7 -RA SCT014 BKN022 OVC075 1-hr Precip Total: 0.02"
2018-04-24 08:54 46 38 38 73 140° 14 23 30.20 30.21 10 -RA FEW025 OVC070 1-hr Precip Total: 0.01"
2018-04-24 07:54 45 36 37 70 130° 10 22 30.20 30.21 10 -RA FEW024 OVC075 1-hr Precip Total: Trace
6-hr Precip Total (8am): 0.04"
24-hr Precip Total (8am): 0.04"
6-hr Min Temp (8am): 44.1°F
6-hr Max Temp (8am): 50.0°F
2018-04-24 07:31 45 35 37 68 130° 12 21 30.20 - 10 BKN023 BKN080 OVC095 None
2018-04-24 06:54 45 34 37 65 130° 14 22 30.20 30.21 10 OVC080 None
2018-04-24 05:54 45 32 38 60 130° 9 17 30.21 30.22 10 OVC080 None
2018-04-24 04:54 45 35 37 68 140° 9 20 30.22 30.22 10 OVC080 6-hr Precip Total (5am): 0.04"
2018-04-24 03:54 44 38 36 78 140° 10 18 30.24 30.24 10 BKN075 OVC090 1-hr Precip Total: 0.02"
2018-04-24 02:54 46 39 41 76 160° 10 - 30.24 30.24 10 -RA OVC065 1-hr Precip Total: 0.02"
2018-04-24 01:54 50 36 43 58 150° 14 22 30.24 30.24 10 OVC075 6-hr Min Temp (2am): 50.0°F
6-hr Max Temp (2am): 55.9°F

Support USWX by starting your Amazon purchase here.